FDX9900 LIMC-EKCH
Flight info
| Callsign | FDX9900 |
|---|---|
| Flight time | N/A |
| Altitude | 36000 |
| Route | OSKOR DCT NESTI/N0476F380 DCT TAGIP DCT BRENO DCT KONIN DCT EXITI DCT EMBOX/N0478F370 DCT NOBRI/N0478F380 M726 ROSOK Q296 MONAK |
| Aircraft | B77L/H-SDE1E2E3FGHIJ2J3J4J5M1RWXY/LB1D1 |
Departure
| Time | 2026-05-06 15:18 |
|---|---|
| Airport | Milan Malpensa International Airport (LIMC) |
Arrival
| Time | N/A |
|---|---|
| Airport | Copenhagen Kastrup Airport (EKCH) |
| Time | Latitude | Longitude | Altitude | Speed | Heading |
|---|---|---|---|---|---|
| 2026-05-06 14:34 | 45.61628 | 8.71973 | 717 ft | 0 kts | 259° |
| 2026-05-06 15:03 | 45.61630 | 8.71988 | 720 ft | 4 kts | 259° |
| 2026-05-06 15:03 | 45.61635 | 8.72026 | 718 ft | 4 kts | 259° |
| 2026-05-06 15:04 | 45.61639 | 8.72056 | 720 ft | 4 kts | 259° |
| 2026-05-06 15:04 | 45.61644 | 8.72091 | 719 ft | 4 kts | 255° |
| 2026-05-06 15:04 | 45.61645 | 8.72104 | 719 ft | 4 kts | 193° |
| 2026-05-06 15:04 | 45.61667 | 8.72104 | 719 ft | 4 kts | 168° |
| 2026-05-06 15:05 | 45.61693 | 8.72095 | 717 ft | 4 kts | 168° |
| 2026-05-06 15:05 | 45.61699 | 8.72093 | 717 ft | 1 kts | 169° |
| 2026-05-06 15:08 | 45.61698 | 8.72093 | 717 ft | 1 kts | 169° |
| 2026-05-06 15:08 | 45.61687 | 8.72096 | 720 ft | 3 kts | 169° |
| 2026-05-06 15:09 | 45.61642 | 8.72109 | 720 ft | 12 kts | 169° |
| 2026-05-06 15:09 | 45.61520 | 8.72142 | 716 ft | 20 kts | 169° |
| 2026-05-06 15:09 | 45.61379 | 8.72181 | 713 ft | 21 kts | 169° |
| 2026-05-06 15:09 | 45.61235 | 8.72221 | 701 ft | 21 kts | 169° |
| 2026-05-06 15:10 | 45.61092 | 8.72262 | 699 ft | 21 kts | 168° |
| 2026-05-06 15:10 | 45.60967 | 8.72299 | 702 ft | 18 kts | 169° |
| 2026-05-06 15:10 | 45.60844 | 8.72333 | 695 ft | 18 kts | 169° |
| 2026-05-06 15:10 | 45.60724 | 8.72369 | 700 ft | 18 kts | 161° |
| 2026-05-06 15:11 | 45.60643 | 8.72491 | 696 ft | 18 kts | 98° |
| 2026-05-06 15:11 | 45.60626 | 8.72669 | 695 ft | 18 kts | 100° |
| 2026-05-06 15:11 | 45.60613 | 8.72847 | 703 ft | 18 kts | 95° |
| 2026-05-06 15:11 | 45.60601 | 8.73026 | 701 ft | 18 kts | 95° |
| 2026-05-06 15:12 | 45.60600 | 8.73204 | 693 ft | 18 kts | 71° |
| 2026-05-06 15:12 | 45.60698 | 8.73309 | 696 ft | 18 kts | 22° |
| 2026-05-06 15:12 | 45.60814 | 8.73377 | 695 ft | 18 kts | 22° |
| 2026-05-06 15:12 | 45.60925 | 8.73425 | 697 ft | 13 kts | 340° |
| 2026-05-06 15:13 | 45.61009 | 8.73376 | 699 ft | 13 kts | 347° |
| 2026-05-06 15:13 | 45.61096 | 8.73347 | 695 ft | 13 kts | 347° |
| 2026-05-06 15:13 | 45.61185 | 8.73320 | 696 ft | 13 kts | 348° |
| 2026-05-06 15:13 | 45.61275 | 8.73297 | 695 ft | 13 kts | 352° |
| 2026-05-06 15:14 | 45.61365 | 8.73277 | 704 ft | 13 kts | 350° |
| 2026-05-06 15:14 | 45.61454 | 8.73254 | 704 ft | 13 kts | 349° |
| 2026-05-06 15:14 | 45.61562 | 8.73227 | 714 ft | 21 kts | 354° |
| 2026-05-06 15:14 | 45.61631 | 8.73356 | 710 ft | 18 kts | 79° |
| 2026-05-06 15:15 | 45.61600 | 8.73524 | 699 ft | 18 kts | 111° |
| 2026-05-06 15:15 | 45.61590 | 8.73585 | 697 ft | 0 kts | 93° |
| 2026-05-06 15:16 | 45.61589 | 8.73594 | 698 ft | 8 kts | 93° |
| 2026-05-06 15:16 | 45.61619 | 8.73711 | 700 ft | 14 kts | 37° |
| 2026-05-06 15:16 | 45.61685 | 8.73718 | 701 ft | 0 kts | 349° |
| 2026-05-06 15:17 | 45.61686 | 8.73718 | 701 ft | 5 kts | 349° |
| 2026-05-06 15:17 | 45.62001 | 8.73632 | 717 ft | 85 kts | 349° |
| 2026-05-06 15:17 | 45.62804 | 8.73409 | 731 ft | 148 kts | 349° |
| 2026-05-06 15:17 | 45.63965 | 8.73089 | 867 ft | 184 kts | 348° |
| 2026-05-06 15:18 | 45.65247 | 8.72703 | 1364 ft | 197 kts | 350° |
| 2026-05-06 15:18 | 45.66689 | 8.72418 | 1724 ft | 219 kts | 358° |
| 2026-05-06 15:18 | 45.68287 | 8.72420 | 1857 ft | 237 kts | 2° |
| 2026-05-06 15:18 | 45.69983 | 8.72472 | 2015 ft | 249 kts | 1° |
| 2026-05-06 15:19 | 45.71733 | 8.72616 | 2193 ft | 255 kts | 14° |
| 2026-05-06 15:19 | 45.73277 | 8.73851 | 2500 ft | 259 kts | 48° |
| 2026-05-06 15:19 | 45.74195 | 8.76063 | 3458 ft | 262 kts | 71° |
| 2026-05-06 15:19 | 45.74647 | 8.78609 | 4509 ft | 266 kts | 84° |
| 2026-05-06 15:20 | 45.74475 | 8.81240 | 5364 ft | 269 kts | 111° |
| 2026-05-06 15:20 | 45.73816 | 8.83764 | 6316 ft | 273 kts | 114° |
| 2026-05-06 15:20 | 45.72873 | 8.86117 | 7180 ft | 275 kts | 129° |
| 2026-05-06 15:20 | 45.71717 | 8.88313 | 8224 ft | 277 kts | 130° |
| 2026-05-06 15:21 | 45.70547 | 8.90539 | 9238 ft | 283 kts | 130° |
| 2026-05-06 15:21 | 45.69363 | 8.92815 | 10187 ft | 288 kts | 130° |
| 2026-05-06 15:21 | 45.68235 | 8.95184 | 11054 ft | 293 kts | 118° |
| 2026-05-06 15:21 | 45.67819 | 8.98093 | 11836 ft | 308 kts | 88° |
| 2026-05-06 15:22 | 45.68099 | 9.01146 | 12666 ft | 314 kts | 84° |
| 2026-05-06 15:22 | 45.68422 | 9.04246 | 13553 ft | 319 kts | 84° |
| 2026-05-06 15:22 | 45.68668 | 9.07402 | 14332 ft | 319 kts | 89° |
| 2026-05-06 15:22 | 45.68901 | 9.10602 | 15026 ft | 328 kts | 86° |
| 2026-05-06 15:23 | 45.69212 | 9.13861 | 15853 ft | 332 kts | 85° |
| 2026-05-06 15:23 | 45.69542 | 9.17161 | 16749 ft | 338 kts | 85° |
| 2026-05-06 15:23 | 45.69873 | 9.20514 | 17626 ft | 344 kts | 85° |
| 2026-05-06 15:23 | 45.70203 | 9.23928 | 18529 ft | 349 kts | 86° |
| 2026-05-06 15:24 | 45.70531 | 9.27404 | 19209 ft | 355 kts | 86° |
| 2026-05-06 15:24 | 45.70858 | 9.30941 | 19881 ft | 361 kts | 86° |
| 2026-05-06 15:24 | 45.71185 | 9.34528 | 20566 ft | 367 kts | 87° |
| 2026-05-06 15:24 | 45.71513 | 9.38169 | 21210 ft | 373 kts | 87° |
| 2026-05-06 15:25 | 45.71845 | 9.41877 | 21896 ft | 378 kts | 88° |
| 2026-05-06 15:25 | 45.72180 | 9.45631 | 22565 ft | 384 kts | 88° |
| 2026-05-06 15:25 | 45.72520 | 9.49449 | 23060 ft | 390 kts | 88° |
| 2026-05-06 15:25 | 45.72862 | 9.53329 | 23711 ft | 395 kts | 88° |
| 2026-05-06 15:26 | 45.73208 | 9.57260 | 24287 ft | 400 kts | 89° |
| 2026-05-06 15:26 | 45.73557 | 9.61227 | 24876 ft | 405 kts | 89° |
| 2026-05-06 15:26 | 45.73909 | 9.65250 | 25485 ft | 409 kts | 89° |
| 2026-05-06 15:26 | 45.74263 | 9.69310 | 26105 ft | 413 kts | 89° |
| 2026-05-06 15:27 | 45.74619 | 9.73416 | 26713 ft | 417 kts | 90° |
| 2026-05-06 15:27 | 45.74971 | 9.77503 | 27282 ft | 422 kts | 90° |
| 2026-05-06 15:27 | 45.75328 | 9.81702 | 27844 ft | 427 kts | 90° |
| 2026-05-06 15:27 | 45.75690 | 9.85946 | 28407 ft | 432 kts | 90° |
| 2026-05-06 15:28 | 45.76056 | 9.90229 | 29008 ft | 437 kts | 90° |
| 2026-05-06 15:28 | 45.76426 | 9.94566 | 29587 ft | 441 kts | 90° |
| 2026-05-06 15:28 | 45.76798 | 9.98942 | 29917 ft | 444 kts | 91° |
| 2026-05-06 15:29 | 45.77418 | 10.06322 | 29814 ft | 446 kts | 90° |
| 2026-05-06 15:29 | 45.78150 | 10.15108 | 29825 ft | 444 kts | 91° |
| 2026-05-06 15:30 | 45.79229 | 10.23836 | 29866 ft | 456 kts | 70° |
| 2026-05-06 15:30 | 45.80853 | 10.27682 | 29907 ft | 465 kts | 51° |
| 2026-05-06 15:30 | 45.83208 | 10.30880 | 29887 ft | 467 kts | 32° |
| 2026-05-06 15:31 | 45.88716 | 10.35767 | 29915 ft | 468 kts | 29° |
| 2026-05-06 15:31 | 45.94268 | 10.40713 | 29923 ft | 472 kts | 30° |
| 2026-05-06 15:32 | 46.02630 | 10.48335 | 29926 ft | 474 kts | 30° |
| 2026-05-06 15:32 | 46.08150 | 10.53411 | 29913 ft | 467 kts | 31° |
| 2026-05-06 15:33 | 46.13648 | 10.58471 | 30444 ft | 473 kts | 31° |
| 2026-05-06 15:33 | 46.16422 | 10.61029 | 30981 ft | 474 kts | 31° |
| 2026-05-06 15:33 | 46.19193 | 10.63587 | 31438 ft | 475 kts | 31° |
| 2026-05-06 15:34 | 46.22003 | 10.66183 | 31789 ft | 485 kts | 31° |
| 2026-05-06 15:34 | 46.24882 | 10.68843 | 31900 ft | 497 kts | 31° |
| 2026-05-06 15:34 | 46.27834 | 10.71575 | 32010 ft | 509 kts | 31° |
| 2026-05-06 15:34 | 46.30848 | 10.74373 | 32146 ft | 520 kts | 31° |
| 2026-05-06 15:35 | 46.33915 | 10.77223 | 32257 ft | 531 kts | 31° |
| 2026-05-06 15:35 | 46.37058 | 10.80148 | 32427 ft | 541 kts | 31° |
| 2026-05-06 15:35 | 46.40238 | 10.83113 | 32625 ft | 547 kts | 31° |
| 2026-05-06 15:35 | 46.43437 | 10.86103 | 32995 ft | 550 kts | 31° |
| 2026-05-06 15:36 | 46.46671 | 10.89127 | 33373 ft | 552 kts | 31° |
| 2026-05-06 15:36 | 46.49891 | 10.92143 | 33976 ft | 549 kts | 31° |
| 2026-05-06 15:36 | 46.53078 | 10.95131 | 34505 ft | 545 kts | 31° |
| 2026-05-06 15:36 | 46.56249 | 10.98109 | 35140 ft | 538 kts | 31° |
| 2026-05-06 15:37 | 46.59375 | 11.01048 | 35699 ft | 533 kts | 31° |
| 2026-05-06 15:37 | 46.62480 | 11.03971 | 36197 ft | 531 kts | 31° |
| 2026-05-06 15:37 | 46.65568 | 11.06881 | 36623 ft | 529 kts | 31° |
| 2026-05-06 15:37 | 46.68646 | 11.09786 | 36917 ft | 526 kts | 31° |
| 2026-05-06 15:38 | 46.74789 | 11.15598 | 36888 ft | 526 kts | 31° |
| 2026-05-06 15:38 | 46.80912 | 11.21406 | 36843 ft | 522 kts | 32° |
| 2026-05-06 15:39 | 46.86986 | 11.27181 | 36835 ft | 520 kts | 31° |
| 2026-05-06 15:39 | 46.93048 | 11.32948 | 36833 ft | 519 kts | 31° |
| 2026-05-06 15:40 | 46.96245 | 11.35342 | 36775 ft | 515 kts | 19° |
| 2026-05-06 15:40 | 46.99652 | 11.36920 | 36799 ft | 512 kts | 10° |
| 2026-05-06 15:40 | 47.06672 | 11.37893 | 36825 ft | 507 kts | 355° |
| 2026-05-06 15:41 | 47.13756 | 11.37685 | 36951 ft | 510 kts | 355° |
| 2026-05-06 15:41 | 47.20849 | 11.37489 | 37070 ft | 516 kts | 355° |
| 2026-05-06 15:42 | 47.24432 | 11.37428 | 37182 ft | 518 kts | 355° |
| 2026-05-06 15:42 | 47.28042 | 11.37384 | 37236 ft | 521 kts | 355° |
| 2026-05-06 15:42 | 47.31727 | 11.37348 | 37383 ft | 523 kts | 356° |
| 2026-05-06 15:42 | 47.35311 | 11.37318 | 37652 ft | 523 kts | 356° |
| 2026-05-06 15:43 | 47.42628 | 11.37249 | 37767 ft | 526 kts | 356° |
| 2026-05-06 15:43 | 47.49919 | 11.37178 | 37758 ft | 522 kts | 356° |
| 2026-05-06 15:44 | 47.57136 | 11.37106 | 37764 ft | 518 kts | 356° |
| 2026-05-06 15:44 | 47.64355 | 11.37026 | 37775 ft | 518 kts | 356° |
| 2026-05-06 15:45 | 47.71572 | 11.36948 | 37776 ft | 519 kts | 356° |
| 2026-05-06 15:45 | 47.78801 | 11.36872 | 37789 ft | 520 kts | 356° |
| 2026-05-06 15:46 | 47.86044 | 11.36796 | 37786 ft | 522 kts | 356° |
| 2026-05-06 15:46 | 47.93336 | 11.36888 | 37800 ft | 524 kts | 358° |
| 2026-05-06 15:47 | 48.00647 | 11.37097 | 37806 ft | 526 kts | 358° |
| 2026-05-06 15:47 | 48.07966 | 11.37294 | 37802 ft | 527 kts | 358° |
| 2026-05-06 15:48 | 48.15290 | 11.37465 | 37812 ft | 528 kts | 358° |
| 2026-05-06 15:48 | 48.20978 | 11.37591 | 37799 ft | 528 kts | 358° |
| 2026-05-06 15:49 | 48.28318 | 11.37753 | 37789 ft | 528 kts | 358° |
| 2026-05-06 15:49 | 48.35663 | 11.37917 | 37776 ft | 527 kts | 358° |
| 2026-05-06 15:50 | 48.42994 | 11.38083 | 37778 ft | 527 kts | 358° |
| 2026-05-06 15:50 | 48.50322 | 11.38249 | 37765 ft | 526 kts | 358° |
| 2026-05-06 15:51 | 48.57619 | 11.38415 | 37765 ft | 525 kts | 358° |
| 2026-05-06 15:51 | 48.64920 | 11.38581 | 37771 ft | 524 kts | 358° |
| 2026-05-06 15:52 | 48.72211 | 11.38747 | 37781 ft | 523 kts | 358° |
| 2026-05-06 15:52 | 48.79473 | 11.38913 | 37768 ft | 523 kts | 358° |
| 2026-05-06 15:53 | 48.86758 | 11.39080 | 37784 ft | 523 kts | 358° |
| 2026-05-06 15:53 | 48.94038 | 11.39247 | 37770 ft | 523 kts | 358° |
| 2026-05-06 15:54 | 49.01315 | 11.39416 | 37762 ft | 523 kts | 358° |
| 2026-05-06 15:54 | 49.08600 | 11.39584 | 37771 ft | 524 kts | 358° |
| 2026-05-06 15:55 | 49.15890 | 11.39753 | 37763 ft | 525 kts | 358° |
| 2026-05-06 15:55 | 49.23214 | 11.39923 | 37769 ft | 526 kts | 358° |
| 2026-05-06 15:56 | 49.30535 | 11.40094 | 37766 ft | 527 kts | 358° |
| 2026-05-06 15:56 | 49.37867 | 11.40266 | 37771 ft | 528 kts | 358° |
| 2026-05-06 15:57 | 49.45221 | 11.40439 | 37789 ft | 529 kts | 358° |
| 2026-05-06 15:57 | 49.52542 | 11.40611 | 37771 ft | 530 kts | 358° |
| 2026-05-06 15:58 | 49.59933 | 11.40724 | 37763 ft | 531 kts | 356° |
| 2026-05-06 15:58 | 49.67316 | 11.40557 | 37772 ft | 531 kts | 356° |
| 2026-05-06 15:59 | 49.74692 | 11.40327 | 37761 ft | 531 kts | 356° |
| 2026-05-06 15:59 | 49.82055 | 11.40137 | 37756 ft | 522 kts | 356° |
| 2026-05-06 16:00 | 49.89229 | 11.39982 | 37762 ft | 513 kts | 356° |
| 2026-05-06 16:00 | 49.96338 | 11.39828 | 37759 ft | 508 kts | 356° |
| 2026-05-06 16:01 | 50.03392 | 11.39672 | 37764 ft | 508 kts | 356° |
| 2026-05-06 16:01 | 50.10471 | 11.39512 | 37774 ft | 510 kts | 356° |
| 2026-05-06 16:02 | 50.17575 | 11.39354 | 37765 ft | 511 kts | 356° |
| 2026-05-06 16:02 | 50.24682 | 11.39197 | 37768 ft | 510 kts | 356° |
| 2026-05-06 16:03 | 50.31771 | 11.39040 | 37754 ft | 508 kts | 356° |
| 2026-05-06 16:03 | 50.38808 | 11.38884 | 37750 ft | 504 kts | 356° |
| 2026-05-06 16:04 | 50.45810 | 11.38727 | 37756 ft | 502 kts | 356° |
| 2026-05-06 16:04 | 50.52773 | 11.38570 | 37742 ft | 500 kts | 357° |
| 2026-05-06 16:05 | 50.59719 | 11.38412 | 37749 ft | 499 kts | 357° |
| 2026-05-06 16:05 | 50.66651 | 11.38253 | 37755 ft | 499 kts | 357° |
| 2026-05-06 16:06 | 50.73607 | 11.38095 | 37756 ft | 500 kts | 357° |
| 2026-05-06 16:06 | 50.80581 | 11.37936 | 37753 ft | 502 kts | 357° |
| 2026-05-06 16:07 | 50.87588 | 11.37775 | 37757 ft | 504 kts | 357° |
| 2026-05-06 16:07 | 50.94622 | 11.37614 | 37751 ft | 506 kts | 357° |
| 2026-05-06 16:08 | 51.01664 | 11.37452 | 37750 ft | 507 kts | 357° |
| 2026-05-06 16:08 | 51.08698 | 11.37291 | 37669 ft | 503 kts | 357° |
| 2026-05-06 16:09 | 51.12195 | 11.37211 | 37534 ft | 503 kts | 356° |
| 2026-05-06 16:09 | 51.15696 | 11.37130 | 37382 ft | 503 kts | 356° |
| 2026-05-06 16:09 | 51.19142 | 11.37050 | 37248 ft | 502 kts | 356° |
| 2026-05-06 16:09 | 51.22685 | 11.36967 | 37141 ft | 501 kts | 356° |
| 2026-05-06 16:10 | 51.26170 | 11.36886 | 37036 ft | 500 kts | 356° |
| 2026-05-06 16:10 | 51.29647 | 11.36805 | 36970 ft | 499 kts | 356° |
| 2026-05-06 16:10 | 51.36565 | 11.36643 | 36822 ft | 497 kts | 356° |
| 2026-05-06 16:11 | 51.43467 | 11.36481 | 36776 ft | 495 kts | 356° |
| 2026-05-06 16:11 | 51.50354 | 11.36319 | 36774 ft | 495 kts | 356° |
| 2026-05-06 16:12 | 51.57191 | 11.36158 | 36781 ft | 495 kts | 356° |
| 2026-05-06 16:12 | 51.64070 | 11.35995 | 36783 ft | 494 kts | 356° |
| 2026-05-06 16:13 | 51.70940 | 11.35833 | 36802 ft | 494 kts | 356° |
| 2026-05-06 16:13 | 51.77813 | 11.35669 | 36800 ft | 494 kts | 356° |
| 2026-05-06 16:14 | 51.83574 | 11.35531 | 36802 ft | 493 kts | 356° |
| 2026-05-06 16:14 | 51.90385 | 11.35368 | 36797 ft | 493 kts | 356° |
| 2026-05-06 16:15 | 51.97247 | 11.35204 | 36803 ft | 493 kts | 356° |
| 2026-05-06 16:15 | 52.04109 | 11.35044 | 36800 ft | 494 kts | 357° |
| 2026-05-06 16:16 | 52.10977 | 11.35839 | 36795 ft | 497 kts | 4° |
| 2026-05-06 16:16 | 52.17846 | 11.37276 | 36802 ft | 497 kts | 5° |
| 2026-05-06 16:17 | 52.24699 | 11.38727 | 36804 ft | 497 kts | 4° |
| 2026-05-06 16:17 | 52.31559 | 11.40118 | 36812 ft | 497 kts | 4° |
| 2026-05-06 16:18 | 52.38429 | 11.41482 | 36806 ft | 497 kts | 4° |
| 2026-05-06 16:18 | 52.45301 | 11.42848 | 36812 ft | 497 kts | 4° |
| 2026-05-06 16:19 | 52.52162 | 11.44220 | 36812 ft | 496 kts | 4° |
| 2026-05-06 16:19 | 52.59002 | 11.45595 | 36820 ft | 496 kts | 4° |
| 2026-05-06 16:20 | 52.65905 | 11.46983 | 36836 ft | 504 kts | 4° |
| 2026-05-06 16:20 | 52.72899 | 11.48395 | 36835 ft | 508 kts | 4° |
| 2026-05-06 16:21 | 52.79926 | 11.49823 | 36831 ft | 509 kts | 4° |
| 2026-05-06 16:21 | 52.86967 | 11.51257 | 36832 ft | 510 kts | 4° |
| 2026-05-06 16:22 | 52.94001 | 11.52694 | 36827 ft | 508 kts | 4° |
| 2026-05-06 16:22 | 53.01003 | 11.54129 | 36841 ft | 506 kts | 4° |
| 2026-05-06 16:23 | 53.07989 | 11.55564 | 36834 ft | 504 kts | 4° |
| 2026-05-06 16:23 | 53.14943 | 11.56997 | 36841 ft | 503 kts | 4° |
| 2026-05-06 16:24 | 53.21876 | 11.58431 | 36858 ft | 502 kts | 4° |
| 2026-05-06 16:24 | 53.28753 | 11.60721 | 36848 ft | 505 kts | 14° |
| 2026-05-06 16:25 | 53.35457 | 11.64238 | 36852 ft | 506 kts | 15° |
| 2026-05-06 16:25 | 53.42196 | 11.67667 | 36871 ft | 505 kts | 14° |
| 2026-05-06 16:26 | 53.48899 | 11.70984 | 36849 ft | 506 kts | 13° |
| 2026-05-06 16:26 | 53.55648 | 11.74338 | 36872 ft | 506 kts | 14° |
| 2026-05-06 16:27 | 53.62404 | 11.77718 | 36878 ft | 506 kts | 14° |
| 2026-05-06 16:27 | 53.69169 | 11.81117 | 36884 ft | 508 kts | 14° |
| 2026-05-06 16:28 | 53.75947 | 11.84535 | 36877 ft | 508 kts | 14° |
| 2026-05-06 16:28 | 53.82717 | 11.87981 | 36873 ft | 508 kts | 14° |
| 2026-05-06 16:29 | 53.89470 | 11.91436 | 36845 ft | 504 kts | 14° |
| 2026-05-06 16:29 | 53.92796 | 11.93143 | 36557 ft | 495 kts | 14° |
| 2026-05-06 16:29 | 53.96080 | 11.94829 | 35926 ft | 494 kts | 14° |
| 2026-05-06 16:30 | 53.99354 | 11.96511 | 34825 ft | 487 kts | 13° |
| 2026-05-06 16:30 | 54.01498 | 11.97614 | 33775 ft | 488 kts | 13° |
| 2026-05-06 16:30 | 54.05864 | 11.99859 | 31204 ft | 491 kts | 14° |
| 2026-05-06 16:30 | 54.09115 | 12.01536 | 29670 ft | 484 kts | 14° |
| 2026-05-06 16:31 | 54.12301 | 12.03188 | 28150 ft | 473 kts | 14° |
| 2026-05-06 16:31 | 54.15389 | 12.04792 | 27381 ft | 450 kts | 14° |
| 2026-05-06 16:31 | 54.18312 | 12.06260 | 26688 ft | 427 kts | 11° |
| 2026-05-06 16:31 | 54.21188 | 12.07200 | 25518 ft | 417 kts | 5° |
| 2026-05-06 16:32 | 54.24045 | 12.07936 | 24326 ft | 413 kts | 4° |
| 2026-05-06 16:32 | 54.26876 | 12.08638 | 23076 ft | 409 kts | 4° |
| 2026-05-06 16:32 | 54.29680 | 12.09334 | 21746 ft | 411 kts | 4° |
| 2026-05-06 16:32 | 54.32538 | 12.10051 | 21032 ft | 415 kts | 4° |
| 2026-05-06 16:33 | 54.35305 | 12.10770 | 20434 ft | 390 kts | 5° |
| 2026-05-06 16:33 | 54.37956 | 12.11470 | 19334 ft | 383 kts | 5° |
| 2026-05-06 16:33 | 54.40580 | 12.12162 | 18166 ft | 379 kts | 5° |
| 2026-05-06 16:34 | 54.45804 | 12.13540 | 16060 ft | 384 kts | 5° |
| 2026-05-06 16:34 | 54.48425 | 12.14236 | 15741 ft | 377 kts | 5° |
| 2026-05-06 16:34 | 54.50985 | 12.14920 | 15475 ft | 369 kts | 6° |
| 2026-05-06 16:34 | 54.53514 | 12.15597 | 15090 ft | 367 kts | 6° |
| 2026-05-06 16:35 | 54.56042 | 12.16272 | 14669 ft | 369 kts | 6° |
| 2026-05-06 16:35 | 54.58589 | 12.16952 | 14304 ft | 369 kts | 6° |
| 2026-05-06 16:35 | 54.61107 | 12.17627 | 13892 ft | 365 kts | 6° |
| 2026-05-06 16:35 | 54.63585 | 12.18293 | 13327 ft | 364 kts | 6° |
| 2026-05-06 16:36 | 54.66114 | 12.18973 | 12721 ft | 363 kts | 6° |
| 2026-05-06 16:36 | 54.68601 | 12.19643 | 12171 ft | 360 kts | 6° |
| 2026-05-06 16:36 | 54.71070 | 12.20308 | 11647 ft | 357 kts | 6° |
| 2026-05-06 16:36 | 54.73515 | 12.20968 | 11155 ft | 354 kts | 6° |
| 2026-05-06 16:37 | 54.75939 | 12.21623 | 10653 ft | 352 kts | 6° |
| 2026-05-06 16:37 | 54.78347 | 12.22275 | 10153 ft | 349 kts | 7° |
| 2026-05-06 16:37 | 54.80739 | 12.22922 | 9650 ft | 346 kts | 7° |
| 2026-05-06 16:37 | 54.83108 | 12.23564 | 9143 ft | 343 kts | 7° |
| 2026-05-06 16:38 | 54.85451 | 12.24200 | 8643 ft | 340 kts | 7° |
| 2026-05-06 16:38 | 54.87779 | 12.24833 | 8228 ft | 337 kts | 7° |
| 2026-05-06 16:38 | 54.90049 | 12.25450 | 7819 ft | 333 kts | 7° |
| 2026-05-06 16:38 | 54.92323 | 12.26068 | 7417 ft | 329 kts | 8° |
| 2026-05-06 16:39 | 54.94569 | 12.26683 | 7010 ft | 325 kts | 8° |
| 2026-05-06 16:39 | 54.96820 | 12.27295 | 6706 ft | 318 kts | 9° |
| 2026-05-06 16:39 | 54.98963 | 12.27879 | 6634 ft | 305 kts | 9° |
| 2026-05-06 16:39 | 55.01017 | 12.28440 | 6553 ft | 292 kts | 9° |
| 2026-05-06 16:40 | 55.02945 | 12.28968 | 6373 ft | 273 kts | 9° |
| 2026-05-06 16:40 | 55.04765 | 12.29466 | 5844 ft | 259 kts | 10° |
| 2026-05-06 16:40 | 55.06541 | 12.29955 | 5021 ft | 258 kts | 10° |
| 2026-05-06 16:40 | 55.08334 | 12.30449 | 4486 ft | 262 kts | 10° |
| 2026-05-06 16:41 | 55.10128 | 12.30942 | 4137 ft | 260 kts | 10° |
| 2026-05-06 16:41 | 55.11906 | 12.31432 | 3813 ft | 257 kts | 10° |
| 2026-05-06 16:41 | 55.13661 | 12.31916 | 3514 ft | 254 kts | 10° |
| 2026-05-06 16:41 | 55.15396 | 12.32394 | 3183 ft | 252 kts | 10° |
| 2026-05-06 16:42 | 55.17113 | 12.32867 | 2981 ft | 247 kts | 10° |
| 2026-05-06 16:42 | 55.18802 | 12.33334 | 2992 ft | 247 kts | 10° |
| 2026-05-06 16:42 | 55.20524 | 12.33811 | 2990 ft | 248 kts | 10° |
| 2026-05-06 16:42 | 55.22226 | 12.34281 | 2984 ft | 247 kts | 10° |
| 2026-05-06 16:43 | 55.23922 | 12.34752 | 2986 ft | 246 kts | 10° |
| 2026-05-06 16:43 | 55.25625 | 12.35226 | 2978 ft | 250 kts | 10° |
| 2026-05-06 16:43 | 55.27348 | 12.35704 | 3004 ft | 251 kts | 10° |
| 2026-05-06 16:43 | 55.29075 | 12.36180 | 2980 ft | 251 kts | 10° |
| 2026-05-06 16:44 | 55.30792 | 12.36656 | 2974 ft | 247 kts | 11° |
| 2026-05-06 16:44 | 55.32478 | 12.37130 | 2972 ft | 246 kts | 10° |
| 2026-05-06 16:44 | 55.34163 | 12.37596 | 2984 ft | 245 kts | 10° |
| 2026-05-06 16:44 | 55.35845 | 12.38063 | 2974 ft | 243 kts | 10° |
| 2026-05-06 16:45 | 55.37465 | 12.38516 | 2952 ft | 233 kts | 10° |
| 2026-05-06 16:45 | 55.39023 | 12.38948 | 2843 ft | 224 kts | 10° |
| 2026-05-06 16:45 | 55.40552 | 12.39376 | 2774 ft | 221 kts | 10° |
| 2026-05-06 16:45 | 55.42048 | 12.39794 | 2794 ft | 214 kts | 10° |
| 2026-05-06 16:46 | 55.43498 | 12.40200 | 2696 ft | 208 kts | 10° |
| 2026-05-06 16:46 | 55.44905 | 12.40593 | 2584 ft | 201 kts | 10° |
| 2026-05-06 16:46 | 55.46248 | 12.41100 | 2495 ft | 194 kts | 25° |
| 2026-05-06 16:46 | 55.47347 | 12.42370 | 2523 ft | 180 kts | 35° |
| 2026-05-06 16:47 | 55.48322 | 12.43648 | 2490 ft | 169 kts | 38° |
| 2026-05-06 16:47 | 55.49198 | 12.44928 | 2484 ft | 163 kts | 39° |
| 2026-05-06 16:47 | 55.50051 | 12.46222 | 2489 ft | 156 kts | 40° |
| 2026-05-06 16:47 | 55.50875 | 12.47485 | 2280 ft | 156 kts | 40° |
| 2026-05-06 16:48 | 55.51684 | 12.48731 | 2076 ft | 150 kts | 40° |
| 2026-05-06 16:48 | 55.52432 | 12.49885 | 1865 ft | 136 kts | 40° |
| 2026-05-06 16:48 | 55.53117 | 12.50938 | 1689 ft | 127 kts | 40° |
| 2026-05-06 16:48 | 55.53772 | 12.51947 | 1520 ft | 127 kts | 40° |
| 2026-05-06 16:49 | 55.54458 | 12.53003 | 1344 ft | 134 kts | 40° |
| 2026-05-06 16:49 | 55.55161 | 12.54089 | 1161 ft | 135 kts | 39° |
| 2026-05-06 16:49 | 55.55851 | 12.55150 | 954 ft | 128 kts | 41° |
| 2026-05-06 16:49 | 55.56529 | 12.56196 | 791 ft | 133 kts | 43° |
| 2026-05-06 16:50 | 55.57245 | 12.57300 | 575 ft | 139 kts | 44° |
| 2026-05-06 16:50 | 55.57491 | 12.57675 | 511 ft | 139 kts | 44° |